Time;durP1;ratioP1;P1;durP2;ratioP2;P2;SDS_P1;SDS_P2;PMS_P1;PMS_P2;Temp;Humidity;BMP_temperature;BMP_pressure;BME280_temperature;BME280_humidity;BME280_pressure;Samples;Min_cycle;Max_cycle;Signal;HPM_P1;HPM_P2
2023/07/07 00:00:04;;;;;;;3.83;3.43;;;;;;;19.56;47.63;156390.00;4987427;28;20557;-81
2023/07/07 00:02:33;;;;;;;4.13;3.50;;;;;;;19.52;47.86;156379.53;5003168;28;20842;-81
2023/07/07 00:05:00;;;;;;;4.03;3.50;;;;;;;19.51;48.08;156376.97;4985728;28;20471;-82
2023/07/07 00:07:27;;;;;;;3.97;3.40;;;;;;;19.48;48.03;156370.44;4989297;28;20454;-81
2023/07/07 00:09:54;;;;;;;3.90;3.37;;;;;;;19.46;48.19;156363.94;4988790;28;20482;-81
2023/07/07 00:12:20;;;;;;;3.83;3.47;;;;;;;19.42;48.29;156354.78;4990643;28;20798;-81
2023/07/07 00:14:48;;;;;;;3.50;3.20;;;;;;;19.37;48.41;156343.06;4989134;28;20824;-82
2023/07/07 00:17:16;;;;;;;4.03;3.27;;;;;;;19.35;48.57;156337.78;4998277;28;20469;-81
2023/07/07 00:19:43;;;;;;;4.70;3.63;;;;;;;19.36;48.34;156340.41;4986191;28;20824;-82
2023/07/07 00:22:09;;;;;;;4.40;3.63;;;;;;;19.39;48.06;156348.28;4986560;28;20471;-81
2023/07/07 00:24:36;;;;;;;3.67;3.20;;;;;;;19.28;48.69;156318.22;4969702;28;20454;-82
2023/07/07 00:27:03;;;;;;;4.23;3.67;;;;;;;19.13;49.24;156280.47;4956790;28;20548;-81
2023/07/07 00:29:30;;;;;;;5.53;3.83;;;;;;;19.03;50.04;156254.41;4989251;28;20498;-81
2023/07/07 00:31:59;;;;;;;4.83;3.33;;;;;;;19.03;49.56;156253.09;4988855;28;20466;-81
2023/07/07 00:34:26;;;;;;;4.47;3.80;;;;;;;18.98;49.90;156240.06;4980434;28;20500;-81
2023/07/07 00:36:52;;;;;;;4.20;3.53;;;;;;;18.87;49.57;156212.72;5002967;28;20558;-81
2023/07/07 00:39:19;;;;;;;4.90;3.40;;;;;;;18.83;50.10;156203.56;4988475;28;20464;-82
2023/07/07 00:41:46;;;;;;;4.17;3.30;;;;;;;18.83;50.31;156203.56;4986413;28;20477;-81
2023/07/07 00:44:12;;;;;;;5.23;4.07;;;;;;;18.77;50.42;156186.66;4988483;28;20454;-81
2023/07/07 00:46:39;;;;;;;4.43;4.03;;;;;;;18.80;50.32;156194.44;4987901;28;20515;-81
2023/07/07 00:49:10;;;;;;;6.37;3.90;;;;;;;18.78;50.74;156189.22;4988144;28;20489;-81
2023/07/07 00:51:40;;;;;;;4.07;3.13;;;;;;;18.66;50.87;156159.31;4986764;28;20830;-81
2023/07/07 00:54:10;;;;;;;3.20;2.90;;;;;;;18.64;50.91;156152.75;5020583;28;20458;-81
2023/07/07 00:56:40;;;;;;;3.43;3.13;;;;;;;18.59;51.04;156141.03;4993115;28;20465;-81
2023/07/07 00:59:10;;;;;;;3.93;3.40;;;;;;;18.44;51.42;156101.91;4987545;28;20481;-81
2023/07/07 01:01:38;;;;;;;4.73;3.30;;;;;;;18.36;52.27;156079.75;4981403;28;20811;-81
2023/07/07 01:04:09;;;;;;;3.77;3.47;;;;;;;18.30;53.09;156065.44;4986979;28;20469;-81
2023/07/07 01:06:38;;;;;;;4.37;3.97;;;;;;;18.24;54.50;156051.09;4986784;28;20537;-81
2023/07/07 01:09:07;;;;;;;4.93;4.43;;;;;;;18.19;53.82;156036.75;4985526;28;20531;-81
2023/07/07 01:11:34;;;;;;;6.83;5.37;;;;;;;18.18;54.40;156035.50;4968971;28;20451;-81
2023/07/07 01:14:03;;;;;;;5.20;3.87;;;;;;;18.21;53.73;156043.28;4985606;28;20465;-81
2023/07/07 01:16:37;;;;;;;8.73;4.87;;;;;;;18.21;55.09;156043.28;4988253;28;20528;-81
2023/07/07 01:19:15;;;;;;;7.13;5.37;;;;;;;18.16;55.34;156030.25;4984248;28;20454;-81
2023/07/07 01:21:48;;;;;;;6.07;5.20;;;;;;;18.10;56.05;156014.66;4981787;28;20461;-81
2023/07/07 01:24:26;;;;;;;5.87;4.37;;;;;;;18.03;56.22;155996.41;4987313;28;20477;-81
2023/07/07 01:27:10;;;;;;;6.83;5.20;;;;;;;17.95;55.74;155975.56;4979197;28;20994;-81
2023/07/07 01:29:55;;;;;;;5.03;4.50;;;;;;;17.91;56.38;155965.16;4991032;28;21058;-81
2023/07/07 01:32:25;;;;;;;7.60;5.10;;;;;;;17.90;56.82;155961.25;4986213;28;20513;-81
2023/07/07 01:34:55;;;;;;;7.47;5.10;;;;;;;17.88;56.71;155957.34;4987883;28;20438;-81
2023/07/07 01:37:22;;;;;;;5.40;4.90;;;;;;;17.85;57.06;155949.53;4968253;28;20496;-81
2023/07/07 01:39:49;;;;;;;5.90;4.90;;;;;;;17.79;56.45;155932.63;4984391;28;20989;-81
2023/07/07 01:42:20;;;;;;;18.90;5.20;;;;;;;17.86;56.54;155952.16;4987776;28;20512;-81
2023/07/07 01:44:58;;;;;;;8.17;4.50;;;;;;;17.72;56.96;155915.69;4987339;28;20528;-81
2023/07/07 01:47:29;;;;;;;5.93;5.33;;;;;;;17.68;56.80;155903.97;4987284;28;20555;-81
2023/07/07 01:49:58;;;;;;;5.53;5.03;;;;;;;17.57;57.69;155876.66;4981283;28;20553;-81
2023/07/07 01:52:29;;;;;;;6.20;5.27;;;;;;;17.48;57.50;155853.16;4987182;28;20461;-81
2023/07/07 01:55:00;;;;;;;10.33;5.33;;;;;;;17.39;57.59;155829.75;4988118;28;20453;-81
2023/07/07 01:57:29;;;;;;;6.23;4.63;;;;;;;17.27;58.02;155798.47;4986061;28;20512;-81
2023/07/07 01:59:56;;;;;;;6.40;4.30;;;;;;;17.26;57.99;155795.91;4986131;28;20466;-81
2023/07/07 02:02:23;;;;;;;6.40;4.50;;;;;;;17.16;58.63;155771.16;4971286;28;20480;-81
2023/07/07 02:04:50;;;;;;;5.27;4.77;;;;;;;17.04;58.59;155739.94;4985131;28;20857;-81
2023/07/07 02:07:18;;;;;;;6.63;4.53;;;;;;;16.95;59.33;155717.81;4980946;28;20470;-81
2023/07/07 02:09:44;;;;;;;6.63;4.80;;;;;;;16.87;59.62;155695.69;4982178;28;20473;-81
2023/07/07 02:12:11;;;;;;;4.77;4.20;;;;;;;16.81;59.99;155680.09;4990765;28;20474;-81
2023/07/07 02:14:37;;;;;;;6.87;4.33;;;;;;;16.74;60.65;155663.16;4995367;28;20441;-81
2023/07/07 02:17:05;;;;;;;3.87;3.47;;;;;;;16.67;60.51;155644.97;4989090;28;20544;-81
2023/07/07 02:19:31;;;;;;;5.67;4.47;;;;;;;16.64;61.04;155637.16;4987984;28;20461;-81
2023/07/07 02:21:59;;;;;;;4.20;3.80;;;;;;;16.60;60.57;155625.47;4989458;28;20442;-81
2023/07/07 02:24:28;;;;;;;5.23;4.00;;;;;;;16.53;60.84;155608.53;4972119;28;20453;-81
2023/07/07 02:26:54;;;;;;;4.17;3.77;;;;;;;16.48;61.49;155594.16;4992258;28;20468;-81
2023/07/07 02:29:21;;;;;;;5.43;4.13;;;;;;;16.49;60.69;155598.09;4990145;28;20477;-81
2023/07/07 02:31:47;;;;;;;3.50;3.17;;;;;;;16.49;60.76;155598.09;4991678;28;20445;-81
2023/07/07 02:34:14;;;;;;;4.93;4.00;;;;;;;16.47;61.03;155591.59;4990413;28;20500;-80
2023/07/07 02:36:41;;;;;;;3.93;3.53;;;;;;;16.38;60.93;155570.78;5023676;28;20453;-81
2023/07/07 02:39:08;;;;;;;4.53;4.00;;;;;;;16.33;61.52;155556.47;4990970;28;20467;-80
2023/07/07 02:41:35;;;;;;;4.07;3.67;;;;;;;16.26;61.27;155539.56;4988339;28;20454;-80
2023/07/07 02:44:03;;;;;;;4.77;4.00;;;;;;;16.19;62.07;155520.03;4983241;28;20462;-82
2023/07/07 02:46:29;;;;;;;5.10;4.50;;;;;;;16.15;62.43;155509.66;4974813;28;20446;-82
2023/07/07 02:48:56;;;;;;;4.90;4.30;;;;;;;16.13;62.75;155504.44;4991536;28;20529;-82
2023/07/07 02:51:23;;;;;;;4.27;3.87;;;;;;;16.12;63.16;155501.88;4989563;28;20473;-83
2023/07/07 02:53:50;;;;;;;5.77;4.07;;;;;;;16.08;63.30;155491.44;5003417;28;21104;-82
2023/07/07 02:56:18;;;;;;;4.83;3.70;;;;;;;16.09;63.19;155494.06;5004971;28;20489;-82
2023/07/07 02:58:44;;;;;;;4.20;3.70;;;;;;;16.06;63.17;155486.25;4990736;28;20458;-82
2023/07/07 03:01:13;;;;;;;5.40;4.27;;;;;;;16.05;64.14;155483.63;4984918;28;20473;-82
2023/07/07 03:03:43;;;;;;;7.00;4.70;;;;;;;16.03;64.28;155479.75;5016747;28;20457;-82
2023/07/07 03:06:12;;;;;;;4.77;4.33;;;;;;;16.04;64.59;155482.38;4971282;28;20478;-82
2023/07/07 03:08:40;;;;;;;4.50;4.00;;;;;;;16.03;65.24;155479.75;4989165;28;20490;-82
2023/07/07 03:11:09;;;;;;;4.20;3.70;;;;;;;16.01;65.25;155473.25;4980095;28;20489;-82
2023/07/07 03:13:38;;;;;;;5.90;4.73;;;;;;;16.00;65.23;155471.94;4979806;28;20549;-82
2023/07/07 03:16:08;;;;;;;6.00;4.70;;;;;;;16.01;65.32;155473.25;4974453;28;20454;-82
2023/07/07 03:18:36;;;;;;;4.90;4.00;;;;;;;16.01;65.49;155474.56;4988645;28;20828;-82
2023/07/07 03:21:02;;;;;;;5.57;5.00;;;;;;;16.03;64.83;155479.75;4971367;28;20462;-82
2023/07/07 03:23:29;;;;;;;5.00;4.43;;;;;;;16.04;64.47;155481.06;4989538;28;20457;-82
2023/07/07 03:26:05;;;;;;;4.53;3.70;;;;;;;16.04;64.95;155481.06;4973884;28;20947;-82
2023/07/07 03:28:32;;;;;;;7.80;5.00;;;;;;;16.00;64.97;155470.63;4988480;28;20524;-82
2023/07/07 03:31:09;;;;;;;6.27;4.90;;;;;;;15.97;65.26;155462.81;4989944;28;20562;-82
2023/07/07 03:33:38;;;;;;;5.17;4.67;;;;;;;16.03;65.05;155478.44;4988309;28;21341;-82
2023/07/07 03:36:05;;;;;;;8.33;5.30;;;;;;;16.04;65.04;155482.38;4987035;28;20549;-82
2023/07/07 03:38:31;;;;;;;7.83;5.93;;;;;;;16.02;65.25;155477.13;4972726;28;20524;-82
2023/07/07 03:40:58;;;;;;;6.70;6.00;;;;;;;16.00;65.19;155471.94;4990776;28;20881;-82
2023/07/07 03:43:33;;;;;;;6.03;5.27;;;;;;;15.98;65.25;155465.44;4987358;28;21055;-82
2023/07/07 03:46:02;;;;;;;9.30;5.47;;;;;;;15.94;65.90;155456.31;4959209;28;20463;-82
2023/07/07 03:48:31;;;;;;;6.87;5.07;;;;;;;15.91;66.25;155447.25;4978443;28;20446;-82
2023/07/07 03:50:59;;;;;;;6.27;4.80;;;;;;;15.92;66.18;155449.81;4970638;28;20889;-82
2023/07/07 03:53:26;;;;;;;5.83;4.40;;;;;;;15.95;66.15;155457.63;4982529;28;20465;-82
2023/07/07 03:55:53;;;;;;;5.93;5.00;;;;;;;15.97;65.90;155464.13;4984685;28;20466;-82
2023/07/07 03:58:20;;;;;;;6.30;4.40;;;;;;;16.01;65.77;155473.25;5007284;28;20463;-82
2023/07/07 04:00:48;;;;;;;5.90;5.30;;;;;;;16.02;65.48;155477.13;4994758;28;20874;-81
2023/07/07 04:03:15;;;;;;;4.87;4.37;;;;;;;16.07;65.35;155490.13;4986324;28;20465;-81
2023/07/07 04:05:44;;;;;;;6.50;5.17;;;;;;;16.11;65.23;155499.25;4984021;28;20564;-81
2023/07/07 04:08:10;;;;;;;7.20;5.70;;;;;;;16.15;65.65;155509.66;4987424;28;20789;-82
2023/07/07 04:10:38;;;;;;;6.00;4.70;;;;;;;16.14;65.86;155508.38;4989489;28;21002;-81
2023/07/07 04:13:05;;;;;;;5.40;4.43;;;;;;;16.19;65.47;155520.03;4980502;28;21367;-82
2023/07/07 04:15:32;;;;;;;5.87;4.60;;;;;;;16.25;65.59;155536.97;4981943;28;20438;-81
2023/07/07 04:17:59;;;;;;;5.40;4.60;;;;;;;16.36;65.37;155564.28;4972721;28;20461;-82
2023/07/07 04:20:26;;;;;;;8.30;4.70;;;;;;;16.59;65.31;155622.84;4970723;28;20434;-82
2023/07/07 04:22:54;;;;;;;6.50;4.93;;;;;;;16.82;63.27;155684.00;4984339;28;20808;-82
2023/07/07 04:25:20;;;;;;;6.77;4.80;;;;;;;17.07;63.38;155746.44;4969871;28;20512;-82
2023/07/07 04:27:47;;;;;;;6.40;5.10;;;;;;;17.26;62.42;155795.91;5002573;28;20563;-82
2023/07/07 04:30:14;;;;;;;6.10;4.50;;;;;;;17.45;61.02;155846.63;5001179;28;20481;-82
2023/07/07 04:32:41;;;;;;;5.73;4.30;;;;;;;17.61;61.71;155887.03;4996156;28;20477;-82
2023/07/07 04:35:08;;;;;;;5.20;4.13;;;;;;;17.76;61.09;155926.13;4998828;28;20507;-82
2023/07/07 04:37:38;;;;;;;4.60;4.20;;;;;;;18.01;59.78;155989.88;5002994;28;20458;-82
2023/07/07 04:40:08;;;;;;;6.43;5.03;;;;;;;18.29;57.94;156062.84;4982508;28;20470;-82
2023/07/07 04:42:35;;;;;;;5.17;4.67;;;;;;;18.48;57.12;156111.09;5006678;28;20849;-82
2023/07/07 04:45:02;;;;;;;5.67;4.90;;;;;;;18.72;57.03;156174.91;4963909;28;20463;-82
2023/07/07 04:47:30;;;;;;;4.47;4.07;;;;;;;18.89;56.50;156217.91;4985547;28;20549;-82
2023/07/07 04:50:00;;;;;;;5.10;4.47;;;;;;;19.01;56.43;156249.16;4991080;28;21023;-82
2023/07/07 04:52:27;;;;;;;4.70;4.00;;;;;;;19.16;56.69;156286.97;5023627;28;20836;-82
2023/07/07 04:54:53;;;;;;;5.03;4.03;;;;;;;19.30;57.40;156323.47;4987416;28;20537;-82
2023/07/07 04:57:21;;;;;;;6.70;4.50;;;;;;;19.48;56.67;156370.44;4987014;28;20998;-82
2023/07/07 04:59:49;;;;;;;5.70;5.10;;;;;;;19.63;56.30;156408.22;4990036;28;20470;-82
2023/07/07 05:02:16;;;;;;;4.83;4.33;;;;;;;19.67;55.87;156418.69;4982394;28;21000;-82
2023/07/07 05:04:42;;;;;;;8.43;4.23;;;;;;;19.67;55.01;156418.69;4983179;28;20463;-82
2023/07/07 05:07:09;;;;;;;7.23;4.70;;;;;;;19.73;56.32;156434.28;4981970;28;20466;-82
2023/07/07 05:09:36;;;;;;;6.53;4.77;;;;;;;19.85;56.01;156465.63;4977653;28;20471;-82
2023/07/07 05:12:03;;;;;;;5.40;4.70;;;;;;;19.94;56.06;156490.38;4975393;28;20470;-82
2023/07/07 05:14:49;;;;;;;5.50;4.53;;;;;;;20.09;56.15;156528.22;4976345;28;20455;-83
2023/07/07 05:20:31;;;;;;;7.13;4.70;;;;;;;20.42;55.64;156613.00;4979031;28;20458;-83
2023/07/07 05:23:11;;;;;;;5.60;4.57;;;;;;;20.63;55.47;156669.09;4975230;28;20458;-83
2023/07/07 05:25:41;;;;;;;5.53;4.60;;;;;;;20.92;54.70;156742.16;4974517;28;20501;-83
2023/07/07 05:28:07;;;;;;;5.43;4.93;;;;;;;21.11;53.31;156791.81;4957826;28;20535;-83
2023/07/07 05:30:35;;;;;;;5.00;4.40;;;;;;;21.24;53.44;156825.72;4979992;28;20480;-83
2023/07/07 05:33:02;;;;;;;5.37;4.03;;;;;;;21.40;52.19;156867.50;4977017;28;20497;-83
2023/07/07 05:35:29;;;;;;;5.27;4.73;;;;;;;21.50;51.65;156893.59;4977882;28;20529;-83
2023/07/07 05:37:56;;;;;;;5.40;4.53;;;;;;;21.63;51.53;156927.53;5012160;28;20465;-83
2023/07/07 05:40:22;;;;;;;5.67;4.90;;;;;;;21.84;51.01;156981.09;4984454;28;20459;-83
2023/07/07 05:42:49;;;;;;;5.33;4.83;;;;;;;21.96;50.71;157011.16;4968289;28;20466;-83
2023/07/07 05:45:16;;;;;;;5.50;4.90;;;;;;;22.14;50.26;157058.16;4986620;28;20474;-82
2023/07/07 05:47:44;;;;;;;5.67;5.07;;;;;;;22.23;50.54;157081.69;4992172;28;20457;-83
2023/07/07 05:50:11;;;;;;;6.00;5.27;;;;;;;22.36;49.89;157115.63;4986079;28;20508;-83
2023/07/07 05:52:38;;;;;;;5.00;4.53;;;;;;;22.42;50.00;157131.31;4981583;28;20465;-84
2023/07/07 05:55:05;;;;;;;5.30;4.73;;;;;;;22.44;50.02;157136.53;4990397;28;20453;-84
2023/07/07 05:57:32;;;;;;;6.33;5.73;;;;;;;22.41;50.05;157128.69;4988162;28;20493;-83
2023/07/07 05:59:59;;;;;;;6.23;5.40;;;;;;;22.56;48.92;157166.59;4983036;28;20462;-83
2023/07/07 06:02:25;;;;;;;6.20;5.57;;;;;;;22.66;49.19;157194.09;4977254;28;20828;-83
2023/07/07 06:04:53;;;;;;;6.37;5.60;;;;;;;22.80;49.13;157230.63;5000042;28;20465;-83
2023/07/07 06:07:20;;;;;;;9.20;5.33;;;;;;;23.01;48.88;157285.50;4990081;28;20477;-83
2023/07/07 06:09:50;;;;;;;7.33;6.20;;;;;;;23.10;48.32;157306.41;5018663;28;20457;-83
2023/07/07 06:12:17;;;;;;;6.20;5.60;;;;;;;23.05;48.88;157294.69;4986842;28;20495;-83
2023/07/07 06:14:43;;;;;;;6.00;5.40;;;;;;;23.06;48.43;157297.25;4989137;28;20576;-84
2023/07/07 06:17:10;;;;;;;6.47;5.50;;;;;;;23.04;48.45;157292.03;4989726;28;20466;-84
2023/07/07 06:19:37;;;;;;;9.50;4.60;;;;;;;23.21;49.33;157336.50;4965612;28;20449;-84
2023/07/07 06:22:06;;;;;;;6.00;5.40;;;;;;;23.42;46.93;157390.13;4991954;28;20468;-84
2023/07/07 06:27:27;;;;;;;6.60;5.63;;;;;;;23.76;46.94;157477.69;4978960;28;21435;-84
2023/07/07 06:29:54;;;;;;;6.40;4.60;;;;;;;23.91;46.66;157518.22;4966214;28;20529;-84
2023/07/07 06:32:21;;;;;;;6.30;4.17;;;;;;;24.05;46.16;157554.84;4964045;28;20499;-85
2023/07/07 06:34:47;;;;;;;5.60;5.10;;;;;;;24.17;45.78;157586.25;4965507;28;20517;-85
2023/07/07 06:37:16;;;;;;;5.63;5.07;;;;;;;24.26;45.57;157607.19;4963627;28;20466;-84
2023/07/07 06:39:42;;;;;;;5.67;5.00;;;;;;;24.37;45.51;157635.97;4982519;28;20457;-83
2023/07/07 06:42:10;;;;;;;6.43;4.90;;;;;;;24.51;46.08;157673.94;4966493;28;20472;-83
2023/07/07 06:44:45;;;;;;;5.40;4.73;;;;;;;24.65;46.00;157710.50;4982639;28;20926;-84
2023/07/07 06:47:14;;;;;;;5.67;4.43;;;;;;;24.66;45.76;157711.84;4968153;28;20989;-84
2023/07/07 06:49:40;;;;;;;5.40;4.90;;;;;;;24.68;44.05;157717.06;4979581;28;20458;-84
2023/07/07 06:52:08;;;;;;;7.10;4.80;;;;;;;24.86;44.57;157764.19;4985727;28;20474;-84
2023/07/07 06:54:36;;;;;;;5.30;4.80;;;;;;;25.04;45.48;157810.00;4981738;28;20842;-84
2023/07/07 06:57:02;;;;;;;9.43;4.80;;;;;;;25.12;43.81;157830.97;4981152;28;20469;-85
2023/07/07 06:59:30;;;;;;;6.73;4.80;;;;;;;25.23;43.43;157861.03;4983608;28;20468;-84
2023/07/07 07:01:57;;;;;;;6.50;4.87;;;;;;;25.41;42.81;157908.19;4965798;28;20452;-84
2023/07/07 07:04:24;;;;;;;9.40;4.90;;;;;;;25.46;43.56;157920.00;4967724;28;20463;-84
2023/07/07 07:06:51;;;;;;;5.23;4.70;;;;;;;25.64;43.50;157965.78;4965760;28;20474;-85
2023/07/07 07:09:18;;;;;;;4.97;4.57;;;;;;;25.71;42.71;157984.09;4984652;28;20508;-84
2023/07/07 07:11:46;;;;;;;5.13;4.53;;;;;;;25.87;42.15;158026.00;4983767;28;20475;-83
2023/07/07 07:14:13;;;;;;;5.70;4.57;;;;;;;26.05;42.40;158073.16;4984959;28;20499;-85
2023/07/07 07:16:39;;;;;;;5.30;4.33;;;;;;;26.21;42.23;158115.06;4969499;28;20470;-85
2023/07/07 07:19:06;;;;;;;6.00;4.53;;;;;;;26.25;40.56;158125.56;4969057;28;20462;-85
2023/07/07 07:21:33;;;;;;;5.00;4.50;;;;;;;26.16;41.31;158100.72;4967274;28;20533;-85
2023/07/07 07:23:59;;;;;;;5.83;5.23;;;;;;;26.34;41.29;158147.84;4978200;28;20514;-85
2023/07/07 07:26:26;;;;;;;5.90;4.80;;;;;;;26.44;41.26;158175.34;4977314;28;20483;-76
2023/07/07 07:28:57;;;;;;;5.60;5.10;;;;;;;26.59;41.82;158213.31;4961358;28;20462;-79
2023/07/07 07:34:58;;;;;;;5.20;4.70;;;;;;;26.91;41.52;158297.19;4958351;28;20463;-83
2023/07/07 07:37:25;;;;;;;8.13;5.20;;;;;;;27.06;40.71;158335.16;4975033;28;20556;-82
2023/07/07 07:39:52;;;;;;;4.83;4.40;;;;;;;27.13;40.49;158353.53;4966246;28;20462;-82
2023/07/07 07:42:18;;;;;;;5.23;4.70;;;;;;;27.22;41.15;158377.09;4961843;28;20478;-82
2023/07/07 07:44:46;;;;;;;6.77;5.00;;;;;;;27.26;40.60;158386.28;4962929;28;20457;-82
2023/07/07 07:47:14;;;;;;;5.77;5.10;;;;;;;27.02;40.95;158326.03;4975145;28;20976;-81
2023/07/07 07:49:41;;;;;;;5.50;4.33;;;;;;;27.02;40.61;158324.72;4964238;28;20485;-82
2023/07/07 07:52:08;;;;;;;5.60;4.63;;;;;;;27.06;40.89;158336.50;4964307;28;20583;-80
2023/07/07 07:54:35;;;;;;;5.40;4.90;;;;;;;27.17;40.58;158364.00;4962426;28;20478;-82
2023/07/07 07:57:02;;;;;;;7.17;5.47;;;;;;;27.00;40.26;158319.47;4961613;28;20548;-82
2023/07/07 07:59:29;;;;;;;5.03;4.13;;;;;;;27.22;40.94;158377.09;4966631;28;20466;-82
2023/07/07 08:01:57;;;;;;;4.30;3.87;;;;;;;27.28;40.51;158392.84;4963444;28;20455;-82
2023/07/07 08:04:24;;;;;;;4.80;4.30;;;;;;;27.38;41.33;158417.72;4962414;28;20479;-82
2023/07/07 08:06:52;;;;;;;5.13;4.20;;;;;;;27.61;40.28;158478.09;4960831;28;20874;-82
2023/07/07 08:09:18;;;;;;;5.73;4.73;;;;;;;28.04;39.41;158590.84;4965866;28;20803;-82
2023/07/07 08:11:58;;;;;;;6.80;4.43;;;;;;;28.23;39.37;158639.34;4964674;28;20577;-82
2023/07/07 08:14:30;;;;;;;4.30;3.90;;;;;;;28.55;38.98;158723.28;4963318;28;20447;-82
2023/07/07 08:17:01;;;;;;;4.73;4.33;;;;;;;28.65;38.03;158749.53;4962570;28;20557;-83
2023/07/07 08:19:32;;;;;;;6.60;5.20;;;;;;;28.58;38.90;158731.16;4942930;28;20457;-82
2023/07/07 08:21:59;;;;;;;6.17;5.57;;;;;;;28.83;38.49;158796.75;4963330;28;20458;-83
2023/07/07 08:24:26;;;;;;;6.50;5.40;;;;;;;29.05;37.94;158853.16;4973814;28;20486;-82
2023/07/07 08:26:53;;;;;;;7.60;6.80;;;;;;;29.28;38.38;158912.28;4965591;28;20888;-82
2023/07/07 08:29:19;;;;;;;6.33;4.60;;;;;;;29.47;37.93;158962.09;4964704;28;20454;-83
2023/07/07 08:31:46;;;;;;;6.90;5.77;;;;;;;29.41;37.58;158947.69;4979748;28;20820;-83
2023/07/07 08:34:14;;;;;;;5.90;4.77;;;;;;;29.50;38.48;158969.97;4960257;28;20486;-82
2023/07/07 08:36:40;;;;;;;5.07;4.57;;;;;;;29.63;37.24;159002.81;4962754;28;20447;-83
2023/07/07 08:39:13;;;;;;;6.23;4.70;;;;;;;29.69;37.35;159019.84;4982521;28;20458;-82
2023/07/07 08:41:46;;;;;;;5.73;4.97;;;;;;;29.62;37.66;159000.16;4979900;28;20786;-83
2023/07/07 08:44:15;;;;;;;5.67;4.40;;;;;;;28.90;38.67;158815.13;4964894;28;20813;-83
2023/07/07 08:46:52;;;;;;;5.13;4.63;;;;;;;28.67;38.84;158754.81;4962659;28;20471;-83
2023/07/07 08:49:22;;;;;;;7.90;4.67;;;;;;;28.72;39.16;158767.94;4978293;28;20459;-82
2023/07/07 08:51:54;;;;;;;5.53;5.03;;;;;;;28.72;38.61;158766.59;4964740;28;20573;-82
2023/07/07 08:54:24;;;;;;;6.63;4.87;;;;;;;28.56;39.36;158724.59;4962911;28;20450;-79
2023/07/07 08:56:54;;;;;;;5.60;4.70;;;;;;;28.53;39.76;158718.03;4974783;28;20486;-79
2023/07/07 08:59:27;;;;;;;9.67;5.13;;;;;;;28.70;38.44;158762.66;4959161;28;20446;-79
2023/07/07 09:01:58;;;;;;;5.67;4.80;;;;;;;28.75;38.13;158775.75;4975129;28;20461;-79
2023/07/07 09:05:00;;;;;;;4.67;4.27;;;;;;;28.92;39.33;158820.38;4956272;28;20841;-79
2023/07/07 09:07:39;;;;;;;4.77;4.27;;;;;;;29.05;37.69;158851.84;4956587;28;20447;-79
2023/07/07 09:10:25;;;;;;;7.37;5.23;;;;;;;28.90;36.38;158815.13;4971994;28;21012;-79
2023/07/07 09:12:56;;;;;;;5.27;4.77;;;;;;;28.74;37.43;158773.16;4973059;28;20474;-79
2023/07/07 09:15:25;;;;;;;5.80;5.20;;;;;;;28.74;38.26;158773.16;4972094;28;20465;-79
2023/07/07 09:17:54;;;;;;;6.17;5.57;;;;;;;28.96;38.02;158830.84;4971208;28;20453;-79
2023/07/07 09:20:23;;;;;;;6.47;4.70;;;;;;;29.06;37.11;158854.47;4961621;28;20466;-79
2023/07/07 09:22:57;;;;;;;8.17;5.00;;;;;;;28.99;36.82;158838.72;4973981;28;20451;-79
2023/07/07 09:25:27;;;;;;;7.43;5.53;;;;;;;29.06;34.04;158855.81;4971963;28;20461;-79
2023/07/07 09:27:58;;;;;;;5.97;5.37;;;;;;;29.18;34.15;158885.94;4972103;28;20458;-79
2023/07/07 09:30:28;;;;;;;4.97;4.57;;;;;;;29.43;35.50;158952.94;4958355;28;20546;-79
2023/07/07 09:32:55;;;;;;;5.73;5.23;;;;;;;29.69;34.80;159019.84;4972123;28;20494;-79
2023/07/07 09:35:27;;;;;;;5.63;5.13;;;;;;;29.94;34.27;159085.53;4955483;28;20465;-79
2023/07/07 09:38:03;;;;;;;5.00;4.60;;;;;;;29.60;34.01;158996.19;4941285;28;20447;-79
2023/07/07 09:40:35;;;;;;;6.30;5.03;;;;;;;29.36;31.42;158933.25;4972103;28;20463;-79
2023/07/07 09:43:05;;;;;;;5.80;5.20;;;;;;;29.30;32.17;158918.81;4971989;28;21211;-79
2023/07/07 09:45:37;;;;;;;6.37;5.10;;;;;;;29.71;32.80;159025.09;4973389;28;20466;-79
2023/07/07 09:48:14;;;;;;;5.40;4.90;;;;;;;29.99;32.99;159098.66;4956955;28;20474;-79
2023/07/07 09:50:58;;;;;;;7.93;5.53;;;;;;;30.20;32.07;159151.13;4971503;28;20450;-79
2023/07/07 09:53:26;;;;;;;5.43;4.83;;;;;;;30.05;33.28;159114.38;4958746;28;20470;-79
2023/07/07 09:55:53;;;;;;;5.40;4.90;;;;;;;30.26;31.90;159168.22;4958083;28;20809;-79
2023/07/07 09:58:24;;;;;;;5.03;4.53;;;;;;;30.16;31.97;159143.25;4972118;28;20706;-79
2023/07/07 10:00:53;;;;;;;7.60;5.90;;;;;;;30.30;31.92;159177.38;4955291;28;20823;-79
2023/07/07 10:03:24;;;;;;;7.40;5.70;;;;;;;30.33;32.53;159185.28;4957578;28;20443;-79
2023/07/07 10:05:53;;;;;;;5.80;5.07;;;;;;;30.07;32.85;159119.66;4972406;28;20865;-79
2023/07/07 10:08:20;;;;;;;6.57;5.80;;;;;;;30.15;33.21;159139.34;4955720;28;20450;-79
2023/07/07 10:10:47;;;;;;;6.50;5.70;;;;;;;30.13;32.32;159135.38;4953020;28;20836;-79
2023/07/07 10:13:14;;;;;;;6.60;5.90;;;;;;;30.20;33.39;159152.47;4970530;28;20835;-79
2023/07/07 10:15:48;;;;;;;7.50;6.70;;;;;;;30.17;30.86;159145.91;4957070;28;20470;-79
2023/07/07 10:18:18;;;;;;;7.10;6.10;;;;;;;29.88;31.31;159069.78;4956251;28;20859;-79
2023/07/07 10:20:45;;;;;;;7.13;6.13;;;;;;;29.60;32.18;158996.19;4969984;28;20463;-79
2023/07/07 10:23:14;;;;;;;7.80;6.50;;;;;;;29.36;32.09;158933.25;4973102;28;20454;-79
2023/07/07 10:25:42;;;;;;;7.67;6.40;;;;;;;29.43;31.94;158951.63;4971286;28;20693;-79
2023/07/07 10:28:11;;;;;;;7.03;6.33;;;;;;;29.57;31.99;158988.38;4938961;28;20486;-79
2023/07/07 10:30:39;;;;;;;8.70;7.20;;;;;;;29.69;30.32;159019.84;4957839;28;20481;-79
2023/07/07 10:33:08;;;;;;;8.87;7.57;;;;;;;29.61;31.12;158998.84;4974445;28;20584;-79
2023/07/07 10:35:34;;;;;;;9.60;7.30;;;;;;;29.80;30.82;159048.78;4975008;28;20462;-79
2023/07/07 10:38:05;;;;;;;7.63;6.70;;;;;;;30.05;31.05;159113.09;4960894;28;20446;-79
2023/07/07 10:40:33;;;;;;;8.20;6.70;;;;;;;30.21;31.41;159155.06;4974533;28;20459;-79
2023/07/07 10:43:00;;;;;;;8.27;7.47;;;;;;;30.12;31.28;159132.78;4974276;28;20464;-79
2023/07/07 10:45:28;;;;;;;8.37;7.57;;;;;;;30.05;30.75;159114.38;4959896;28;20451;-79
2023/07/07 10:47:55;;;;;;;8.13;7.33;;;;;;;30.00;31.03;159099.94;4974545;28;20886;-79
2023/07/07 10:50:25;;;;;;;7.97;7.10;;;;;;;29.55;31.12;158984.41;4974185;28;20470;-79
2023/07/07 10:53:02;;;;;;;10.17;8.20;;;;;;;29.37;30.63;158937.19;4974221;28;20869;-79
2023/07/07 10:55:36;;;;;;;9.10;7.50;;;;;;;29.42;30.84;158950.28;4942082;28;20562;-79
2023/07/07 10:58:14;;;;;;;12.80;8.17;;;;;;;29.61;29.44;158997.53;4962873;28;20451;-79
2023/07/07 11:00:54;;;;;;;7.50;6.63;;;;;;;29.35;30.80;158930.63;4960017;28;20862;-79
2023/07/07 11:03:41;;;;;;;8.63;7.70;;;;;;;29.09;31.17;158862.34;4959671;28;20465;-79
2023/07/07 11:06:16;;;;;;;10.50;8.30;;;;;;;28.98;31.55;158836.13;4972081;28;20848;-79
2023/07/07 11:08:49;;;;;;;10.80;7.00;;;;;;;29.16;31.57;158882.03;4956088;28;20473;-79
2023/07/07 11:11:25;;;;;;;7.43;6.63;;;;;;;28.92;31.76;158819.06;4957588;28;21155;-79
2023/07/07 11:14:24;;;;;;;8.23;6.70;;;;;;;28.85;31.10;158800.72;4973037;28;20469;-79
2023/07/07 11:17:01;;;;;;;7.37;6.43;;;;;;;28.79;31.25;158786.28;4960104;28;20546;-79
2023/07/07 11:20:00;;;;;;;8.93;6.97;;;;;;;29.05;31.40;158851.84;4973939;28;20458;-79
2023/07/07 11:22:47;;;;;;;7.77;6.57;;;;;;;29.30;30.86;158918.81;4973455;28;20451;-79
2023/07/07 11:25:20;;;;;;;7.80;6.40;;;;;;;29.19;30.34;158888.59;4972553;28;20812;-79
2023/07/07 11:27:57;;;;;;;9.10;7.10;;;;;;;29.14;31.57;158875.47;4959436;28;20969;-79
2023/07/07 11:30:28;;;;;;;7.87;6.67;;;;;;;29.33;30.51;158926.72;4975176;28;20469;-79
2023/07/07 11:33:04;;;;;;;7.70;6.73;;;;;;;29.51;29.65;158972.59;4959688;28;20493;-79
2023/07/07 11:35:42;;;;;;;9.03;6.93;;;;;;;29.36;29.28;158934.53;4959733;28;20463;-79
2023/07/07 11:38:20;;;;;;;7.33;6.50;;;;;;;29.43;29.61;158951.63;4973452;28;20498;-79
2023/07/07 11:41:00;;;;;;;8.43;7.50;;;;;;;29.54;29.16;158980.50;4957721;28;20454;-79
2023/07/07 11:43:47;;;;;;;11.23;7.07;;;;;;;29.48;29.67;158966.06;4958190;28;20796;-79